Time,TemperatureF,DewpointF,PressureIn,WindDirection,WindDirectionDegrees,WindSpeedMPH,WindSpeedGustMPH,Humidity,HourlyPrecipIn,Conditions,Clouds,dailyrainin,SoftwareType,DateUTC
2013-06-28 00:05:00,58.4,58.4,30.11,ESE,103,0.0,0.0,100,0.00,,,0.00,Wunderground v.1.15,2013-06-28 07:05:00,
2013-06-28 00:35:00,58.3,58.3,30.10,ESE,103,0.0,0.0,100,0.00,,,0.00,Wunderground v.1.15,2013-06-28 07:35:00,
2013-06-28 01:05:00,58.3,58.3,30.10,ESE,103,0.0,0.0,100,0.00,,,0.00,Wunderground v.1.15,2013-06-28 08:05:00,
2013-06-28 01:35:00,57.8,57.8,30.09,ESE,103,0.0,0.0,100,0.00,,,0.00,Wunderground v.1.15,2013-06-28 08:35:00,
2013-06-28 02:05:00,57.5,57.5,30.09,ESE,103,0.0,0.0,100,0.00,,,0.00,Wunderground v.1.15,2013-06-28 09:05:00,
2013-06-28 02:35:00,57.2,57.2,30.08,ESE,103,0.0,0.0,100,0.00,,,0.00,Wunderground v.1.15,2013-06-28 09:35:00,
2013-06-28 03:05:00,57.3,57.3,30.08,ESE,103,0.0,0.0,100,0.00,,,0.00,Wunderground v.1.15,2013-06-28 10:05:00,
2013-06-28 03:35:00,57.5,57.5,30.08,ESE,103,0.0,0.0,100,0.00,,,0.00,Wunderground v.1.15,2013-06-28 10:35:00,
2013-06-28 04:05:00,57.2,57.2,30.07,ESE,103,0.0,0.0,100,0.00,,,0.00,Wunderground v.1.15,2013-06-28 11:05:00,
2013-06-28 04:35:00,57.3,57.3,30.07,ESE,103,0.0,0.0,100,0.00,,,0.00,Wunderground v.1.15,2013-06-28 11:35:00,
2013-06-28 05:05:00,57.3,57.3,30.06,ESE,103,0.0,0.0,100,0.00,,,0.00,Wunderground v.1.15,2013-06-28 12:05:00,
2013-06-28 05:35:00,57.2,57.2,30.06,ESE,103,0.0,0.0,100,0.00,,,0.00,Wunderground v.1.15,2013-06-28 12:35:00,
2013-06-28 06:05:00,56.9,56.9,30.07,ESE,103,0.0,0.0,100,0.00,,,0.00,Wunderground v.1.15,2013-06-28 13:05:00,
2013-06-28 06:35:00,57.5,57.5,30.07,ESE,103,0.0,0.0,100,0.00,,,0.00,Wunderground v.1.15,2013-06-28 13:35:00,
2013-06-28 07:05:00,60.9,60.9,30.07,ESE,103,0.0,0.0,100,0.00,,,0.00,Wunderground v.1.15,2013-06-28 14:05:00,
2013-06-28 07:35:00,63.2,63.2,30.06,ESE,103,0.0,0.0,100,0.00,,,0.00,Wunderground v.1.15,2013-06-28 14:35:00,
2013-06-28 08:05:00,67.3,67.3,30.06,ESE,103,0.0,0.0,100,0.00,,,0.00,Wunderground v.1.15,2013-06-28 15:05:00,
2013-06-28 08:35:00,71.5,69.4,30.06,ESE,106,0.0,0.0,93,0.00,,,0.00,Wunderground v.1.15,2013-06-28 15:35:00,
2013-06-28 09:05:00,76.8,71.9,30.06,ESE,106,0.0,0.0,85,0.00,,,0.00,Wunderground v.1.15,2013-06-28 16:05:00,
2013-06-28 09:35:00,78.1,73.2,30.05,ESE,107,0.0,0.0,85,0.00,,,0.00,Wunderground v.1.15,2013-06-28 16:35:00,
2013-06-28 10:05:00,79.9,75.0,30.06,SE,145,0.0,0.0,85,0.00,,,0.00,Wunderground v.1.15,2013-06-28 17:05:00,
2013-06-28 10:35:00,79.9,75.0,30.07,SE,145,0.0,0.0,85,0.00,,,0.00,Wunderground v.1.15,2013-06-28 17:35:00,
2013-06-28 11:05:00,72.1,67.0,30.07,SE,145,0.0,0.0,84,0.00,,,0.00,Wunderground v.1.15,2013-06-28 18:05:00,
2013-06-28 11:35:00,73.9,67.3,30.07,SE,145,0.0,0.0,80,0.00,,,0.00,Wunderground v.1.15,2013-06-28 18:35:00,
2013-06-28 12:05:00,74.4,67.8,30.08,SE,145,0.0,0.0,80,0.00,,,0.00,Wunderground v.1.15,2013-06-28 19:05:00,
2013-06-28 12:35:00,75.6,67.9,30.07,SE,145,0.0,0.0,77,0.00,,,0.00,Wunderground v.1.15,2013-06-28 19:35:00,
2013-06-28 13:05:00,76.1,68.4,30.07,SE,145,0.0,0.0,77,0.00,,,0.00,Wunderground v.1.15,2013-06-28 20:05:00,
2013-06-28 13:35:00,77.0,67.3,30.07,SE,145,0.0,0.0,72,0.00,,,0.00,Wunderground v.1.15,2013-06-28 20:35:00,
2013-06-28 14:05:00,76.8,65.9,30.07,SE,144,0.0,0.0,69,0.00,,,0.00,Wunderground v.1.15,2013-06-28 21:05:00,
2013-06-28 14:35:00,77.9,66.9,30.06,SE,144,0.0,0.0,69,0.00,,,0.00,Wunderground v.1.15,2013-06-28 21:35:00,
2013-06-28 15:05:00,78.1,66.7,30.05,SE,144,0.0,0.0,68,0.00,,,0.00,Wunderground v.1.15,2013-06-28 22:05:00,
2013-06-28 15:35:00,77.0,66.5,30.05,SE,144,0.0,0.0,70,0.00,,,0.00,Wunderground v.1.15,2013-06-28 22:35:00,
2013-06-28 16:05:00,76.7,66.2,30.04,SE,144,0.0,0.0,70,0.00,,,0.00,Wunderground v.1.15,2013-06-28 23:05:00,
2013-06-28 16:35:00,77.2,65.4,30.03,SE,144,0.0,0.0,67,0.00,,,0.00,Wunderground v.1.15,2013-06-28 23:35:00,
2013-06-28 17:05:00,77.2,64.5,30.04,SE,144,0.0,0.0,65,0.00,,,0.00,Wunderground v.1.15,2013-06-29 00:05:00,
2013-06-28 17:35:00,76.8,65.0,30.03,SE,145,0.0,0.0,67,0.00,,,0.00,Wunderground v.1.15,2013-06-29 00:35:00,
2013-06-28 18:05:00,74.6,65.4,30.04,SE,145,0.0,0.0,73,0.00,,,0.00,Wunderground v.1.15,2013-06-29 01:05:00,
2013-06-28 18:35:00,73.2,64.8,30.05,SE,145,0.0,0.0,75,0.00,,,0.00,Wunderground v.1.15,2013-06-29 01:35:00,
2013-06-28 19:05:00,72.1,64.5,30.04,SE,145,0.0,0.0,77,0.00,,,0.00,Wunderground v.1.15,2013-06-29 02:05:00,
2013-06-28 19:35:00,70.6,63.4,30.05,SE,145,0.0,0.0,78,0.00,,,0.00,Wunderground v.1.15,2013-06-29 02:35:00,
2013-06-28 20:05:00,68.9,65.8,30.05,SE,145,0.0,0.0,90,0.00,,,0.00,Wunderground v.1.15,2013-06-29 03:05:00,
2013-06-28 20:35:00,67.6,65.5,30.05,SE,145,0.0,0.0,93,0.00,,,0.00,Wunderground v.1.15,2013-06-29 03:35:00,
2013-06-28 21:05:00,66.3,65.1,30.06,SE,145,0.0,0.0,96,0.00,,,0.00,Wunderground v.1.15,2013-06-29 04:05:00,
2013-06-28 21:35:00,65.2,65.2,30.06,SE,145,0.0,0.0,100,0.00,,,0.00,Wunderground v.1.15,2013-06-29 04:35:00,
2013-06-28 22:05:00,64.0,64.0,30.06,SE,145,0.0,0.0,100,0.00,,,0.00,Wunderground v.1.15,2013-06-29 05:05:00,
2013-06-28 22:35:00,63.2,63.2,30.07,SE,145,0.0,0.0,100,0.00,,,0.00,Wunderground v.1.15,2013-06-29 05:35:00,
2013-06-28 23:05:00,62.6,62.6,30.07,SE,145,0.0,0.0,100,0.00,,,0.00,Wunderground v.1.15,2013-06-29 06:05:00,
2013-06-28 23:35:00,62.0,62.0,30.06,SE,145,0.0,0.0,100,0.00,,,0.00,Wunderground v.1.15,2013-06-29 06:35:00,